sensor_id;sensor_type;location;lat;lon;timestamp;temperature;humidity
47114;DHT22;32867;51.556;6.832;2023-08-01T00:01:55;16.90;99.90
47114;DHT22;32867;51.556;6.832;2023-08-01T00:06:56;16.90;99.90
47114;DHT22;32867;51.556;6.832;2023-08-01T00:11:56;16.90;99.90
47114;DHT22;32867;51.556;6.832;2023-08-01T00:16:57;16.90;99.90
47114;DHT22;32867;51.556;6.832;2023-08-01T00:21:58;16.90;99.90
47114;DHT22;32867;51.556;6.832;2023-08-01T00:26:58;16.90;99.90
47114;DHT22;32867;51.556;6.832;2023-08-01T00:32:00;16.90;99.90
47114;DHT22;32867;51.556;6.832;2023-08-01T00:37:01;16.90;99.90
47114;DHT22;32867;51.556;6.832;2023-08-01T00:42:01;17.00;99.90
47114;DHT22;32867;51.556;6.832;2023-08-01T00:47:02;17.00;99.90
47114;DHT22;32867;51.556;6.832;2023-08-01T00:52:03;17.00;99.90
47114;DHT22;32867;51.556;6.832;2023-08-01T00:57:05;16.90;99.90
47114;DHT22;32867;51.556;6.832;2023-08-01T01:02:06;16.90;99.90
47114;DHT22;32867;51.556;6.832;2023-08-01T01:07:06;16.80;99.90
47114;DHT22;32867;51.556;6.832;2023-08-01T01:12:07;16.80;99.90
47114;DHT22;32867;51.556;6.832;2023-08-01T01:17:08;16.80;99.90
47114;DHT22;32867;51.556;6.832;2023-08-01T01:22:10;16.70;99.90
47114;DHT22;32867;51.556;6.832;2023-08-01T01:27:12;16.70;99.90
47114;DHT22;32867;51.556;6.832;2023-08-01T01:32:13;16.70;99.90
47114;DHT22;32867;51.556;6.832;2023-08-01T01:37:14;16.70;99.90
47114;DHT22;32867;51.556;6.832;2023-08-01T01:42:15;16.60;99.90
47114;DHT22;32867;51.556;6.832;2023-08-01T01:47:17;16.70;99.90
47114;DHT22;32867;51.556;6.832;2023-08-01T01:52:18;16.60;99.90
47114;DHT22;32867;51.556;6.832;2023-08-01T01:57:18;16.70;99.90
47114;DHT22;32867;51.556;6.832;2023-08-01T02:02:19;16.70;99.90
47114;DHT22;32867;51.556;6.832;2023-08-01T02:07:20;16.70;99.90
47114;DHT22;32867;51.556;6.832;2023-08-01T02:12:21;16.80;99.90
47114;DHT22;32867;51.556;6.832;2023-08-01T02:17:21;16.70;99.90
47114;DHT22;32867;51.556;6.832;2023-08-01T02:22:24;16.70;99.90
47114;DHT22;32867;51.556;6.832;2023-08-01T02:27:24;16.60;99.90
47114;DHT22;32867;51.556;6.832;2023-08-01T02:32:25;16.70;99.90
47114;DHT22;32867;51.556;6.832;2023-08-01T02:37:27;16.60;99.90
47114;DHT22;32867;51.556;6.832;2023-08-01T02:42:28;16.60;99.90
47114;DHT22;32867;51.556;6.832;2023-08-01T02:47:28;16.70;99.90
47114;DHT22;32867;51.556;6.832;2023-08-01T02:52:29;16.80;99.90
47114;DHT22;32867;51.556;6.832;2023-08-01T02:57:30;16.70;99.90
47114;DHT22;32867;51.556;6.832;2023-08-01T03:02:31;16.80;99.90
47114;DHT22;32867;51.556;6.832;2023-08-01T03:07:32;16.80;99.90
47114;DHT22;32867;51.556;6.832;2023-08-01T03:12:33;16.70;99.90
47114;DHT22;32867;51.556;6.832;2023-08-01T03:17:33;16.60;99.90
47114;DHT22;32867;51.556;6.832;2023-08-01T03:22:35;16.50;99.90
47114;DHT22;32867;51.556;6.832;2023-08-01T03:27:36;16.60;99.90
47114;DHT22;32867;51.556;6.832;2023-08-01T03:32:37;16.40;99.90
47114;DHT22;32867;51.556;6.832;2023-08-01T03:37:38;16.50;99.90
47114;DHT22;32867;51.556;6.832;2023-08-01T03:42:39;16.40;99.90
47114;DHT22;32867;51.556;6.832;2023-08-01T03:47:41;16.30;99.90
47114;DHT22;32867;51.556;6.832;2023-08-01T03:52:42;16.40;99.90
47114;DHT22;32867;51.556;6.832;2023-08-01T03:57:43;16.20;99.90
47114;DHT22;32867;51.556;6.832;2023-08-01T04:02:44;16.20;99.90
47114;DHT22;32867;51.556;6.832;2023-08-01T04:07:45;16.30;99.90
47114;DHT22;32867;51.556;6.832;2023-08-01T04:12:46;16.00;99.90
47114;DHT22;32867;51.556;6.832;2023-08-01T04:17:48;16.10;99.90
47114;DHT22;32867;51.556;6.832;2023-08-01T04:22:49;16.10;99.90
47114;DHT22;32867;51.556;6.832;2023-08-01T04:27:49;16.20;99.90
47114;DHT22;32867;51.556;6.832;2023-08-01T04:32:50;16.20;99.90
47114;DHT22;32867;51.556;6.832;2023-08-01T04:37:51;16.20;99.90
47114;DHT22;32867;51.556;6.832;2023-08-01T04:42:51;16.20;99.90
47114;DHT22;32867;51.556;6.832;2023-08-01T04:47:52;16.10;99.90
47114;DHT22;32867;51.556;6.832;2023-08-01T04:52:53;16.10;99.90
47114;DHT22;32867;51.556;6.832;2023-08-01T04:57:53;16.10;99.90
47114;DHT22;32867;51.556;6.832;2023-08-01T05:02:54;16.00;99.90
47114;DHT22;32867;51.556;6.832;2023-08-01T05:07:55;16.10;99.90
47114;DHT22;32867;51.556;6.832;2023-08-01T05:12:55;16.20;99.90
47114;DHT22;32867;51.556;6.832;2023-08-01T05:17:56;16.20;99.90
47114;DHT22;32867;51.556;6.832;2023-08-01T05:22:59;16.20;99.90
47114;DHT22;32867;51.556;6.832;2023-08-01T05:28:00;16.10;99.90
47114;DHT22;32867;51.556;6.832;2023-08-01T05:33:01;16.20;99.90
47114;DHT22;32867;51.556;6.832;2023-08-01T05:38:01;16.20;99.90
47114;DHT22;32867;51.556;6.832;2023-08-01T05:43:02;16.30;99.90
47114;DHT22;32867;51.556;6.832;2023-08-01T05:48:05;16.30;99.90
47114;DHT22;32867;51.556;6.832;2023-08-01T05:53:05;16.40;99.90
47114;DHT22;32867;51.556;6.832;2023-08-01T05:58:08;16.50;99.90
47114;DHT22;32867;51.556;6.832;2023-08-01T06:03:08;16.40;99.90
47114;DHT22;32867;51.556;6.832;2023-08-01T06:08:09;16.30;99.90
47114;DHT22;32867;51.556;6.832;2023-08-01T06:13:10;16.40;99.90
47114;DHT22;32867;51.556;6.832;2023-08-01T06:18:10;16.40;99.90
47114;DHT22;32867;51.556;6.832;2023-08-01T06:23:12;16.50;99.90
47114;DHT22;32867;51.556;6.832;2023-08-01T06:28:12;16.60;99.90
47114;DHT22;32867;51.556;6.832;2023-08-01T06:33:13;16.50;99.90
47114;DHT22;32867;51.556;6.832;2023-08-01T06:38:13;16.60;99.90
47114;DHT22;32867;51.556;6.832;2023-08-01T06:43:14;16.70;99.90
47114;DHT22;32867;51.556;6.832;2023-08-01T06:48:15;16.70;99.90
47114;DHT22;32867;51.556;6.832;2023-08-01T06:53:15;16.80;99.90
47114;DHT22;32867;51.556;6.832;2023-08-01T06:58:16;16.90;99.90
47114;DHT22;32867;51.556;6.832;2023-08-01T07:03:17;16.70;99.90
47114;DHT22;32867;51.556;6.832;2023-08-01T07:08:17;16.70;99.90
47114;DHT22;32867;51.556;6.832;2023-08-01T07:13:18;16.60;99.90
47114;DHT22;32867;51.556;6.832;2023-08-01T07:18:20;16.70;99.90
47114;DHT22;32867;51.556;6.832;2023-08-01T07:23:20;16.90;99.90
47114;DHT22;32867;51.556;6.832;2023-08-01T07:28:21;17.00;99.90
47114;DHT22;32867;51.556;6.832;2023-08-01T07:33:22;17.20;99.90
47114;DHT22;32867;51.556;6.832;2023-08-01T07:38:22;17.40;99.90
47114;DHT22;32867;51.556;6.832;2023-08-01T07:43:25;17.50;99.90
47114;DHT22;32867;51.556;6.832;2023-08-01T07:48:26;17.50;99.90
47114;DHT22;32867;51.556;6.832;2023-08-01T07:53:27;17.40;99.90
47114;DHT22;32867;51.556;6.832;2023-08-01T07:58:29;17.40;99.90
47114;DHT22;32867;51.556;6.832;2023-08-01T08:03:30;17.40;99.90
47114;DHT22;32867;51.556;6.832;2023-08-01T08:08:31;17.80;99.90
47114;DHT22;32867;51.556;6.832;2023-08-01T08:13:34;17.80;99.90
47114;DHT22;32867;51.556;6.832;2023-08-01T08:18:34;17.70;99.90
47114;DHT22;32867;51.556;6.832;2023-08-01T08:23:35;17.60;99.90
47114;DHT22;32867;51.556;6.832;2023-08-01T08:28:37;17.60;99.90
47114;DHT22;32867;51.556;6.832;2023-08-01T08:33:38;18.20;99.90
47114;DHT22;32867;51.556;6.832;2023-08-01T08:38:38;18.10;99.90
47114;DHT22;32867;51.556;6.832;2023-08-01T08:43:41;17.90;99.90
47114;DHT22;32867;51.556;6.832;2023-08-01T08:48:42;18.10;99.90
47114;DHT22;32867;51.556;6.832;2023-08-01T08:53:45;18.30;99.90
47114;DHT22;32867;51.556;6.832;2023-08-01T08:58:46;18.70;99.90
47114;DHT22;32867;51.556;6.832;2023-08-01T09:03:47;18.80;99.90
47114;DHT22;32867;51.556;6.832;2023-08-01T09:08:51;19.30;99.90
47114;DHT22;32867;51.556;6.832;2023-08-01T09:13:55;19.10;99.90
47114;DHT22;32867;51.556;6.832;2023-08-01T09:18:55;18.90;99.90
47114;DHT22;32867;51.556;6.832;2023-08-01T09:23:56;19.00;99.90
47114;DHT22;32867;51.556;6.832;2023-08-01T09:28:57;19.10;99.90
47114;DHT22;32867;51.556;6.832;2023-08-01T09:33:58;18.90;99.90
47114;DHT22;32867;51.556;6.832;2023-08-01T09:39:00;19.30;99.90
47114;DHT22;32867;51.556;6.832;2023-08-01T09:44:02;19.40;99.90
47114;DHT22;32867;51.556;6.832;2023-08-01T09:49:10;19.60;99.90
47114;DHT22;32867;51.556;6.832;2023-08-01T09:54:11;19.20;99.90
47114;DHT22;32867;51.556;6.832;2023-08-01T09:59:13;18.70;99.90
47114;DHT22;32867;51.556;6.832;2023-08-01T10:04:29;18.90;99.90
47114;DHT22;32867;51.556;6.832;2023-08-01T10:09:30;18.80;99.90
47114;DHT22;32867;51.556;6.832;2023-08-01T10:14:32;18.60;99.90
47114;DHT22;32867;51.556;6.832;2023-08-01T10:19:33;18.80;99.90
47114;DHT22;32867;51.556;6.832;2023-08-01T10:24:34;18.90;99.90
47114;DHT22;32867;51.556;6.832;2023-08-01T10:29:36;18.80;99.90
47114;DHT22;32867;51.556;6.832;2023-08-01T10:34:37;18.60;99.90
47114;DHT22;32867;51.556;6.832;2023-08-01T10:39:38;17.30;99.90
47114;DHT22;32867;51.556;6.832;2023-08-01T10:44:45;17.30;99.90
47114;DHT22;32867;51.556;6.832;2023-08-01T10:49:46;17.50;99.90
47114;DHT22;32867;51.556;6.832;2023-08-01T10:54:47;17.50;99.90
47114;DHT22;32867;51.556;6.832;2023-08-01T10:59:47;18.00;99.90
47114;DHT22;32867;51.556;6.832;2023-08-01T11:05:03;18.20;99.90
47114;DHT22;32867;51.556;6.832;2023-08-01T11:10:09;19.10;99.90
47114;DHT22;32867;51.556;6.832;2023-08-01T11:15:12;19.20;99.90
47114;DHT22;32867;51.556;6.832;2023-08-01T11:20:14;19.00;99.90
47114;DHT22;32867;51.556;6.832;2023-08-01T11:25:15;18.40;99.90
47114;DHT22;32867;51.556;6.832;2023-08-01T11:30:16;18.40;99.90
47114;DHT22;32867;51.556;6.832;2023-08-01T11:35:19;18.60;99.90
47114;DHT22;32867;51.556;6.832;2023-08-01T11:40:20;18.70;99.90
47114;DHT22;32867;51.556;6.832;2023-08-01T11:45:21;18.80;99.90
47114;DHT22;32867;51.556;6.832;2023-08-01T11:50:23;18.90;99.90
47114;DHT22;32867;51.556;6.832;2023-08-01T11:55:27;19.20;99.90
47114;DHT22;32867;51.556;6.832;2023-08-01T12:00:28;19.70;99.90
47114;DHT22;32867;51.556;6.832;2023-08-01T12:05:29;20.10;99.90
47114;DHT22;32867;51.556;6.832;2023-08-01T12:10:40;19.60;99.90
47114;DHT22;32867;51.556;6.832;2023-08-01T12:15:41;19.60;99.90
47114;DHT22;32867;51.556;6.832;2023-08-01T12:20:41;19.50;99.90
47114;DHT22;32867;51.556;6.832;2023-08-01T12:25:42;20.00;99.90
47114;DHT22;32867;51.556;6.832;2023-08-01T12:30:43;20.60;99.90
47114;DHT22;32867;51.556;6.832;2023-08-01T12:35:44;20.50;99.90
47114;DHT22;32867;51.556;6.832;2023-08-01T12:40:45;20.30;99.90
47114;DHT22;32867;51.556;6.832;2023-08-01T12:45:47;20.10;99.90
47114;DHT22;32867;51.556;6.832;2023-08-01T12:50:48;20.10;99.90
47114;DHT22;32867;51.556;6.832;2023-08-01T12:55:50;20.40;99.90
47114;DHT22;32867;51.556;6.832;2023-08-01T13:00:51;20.60;99.90
47114;DHT22;32867;51.556;6.832;2023-08-01T13:05:52;20.80;99.90
47114;DHT22;32867;51.556;6.832;2023-08-01T13:10:53;21.40;99.90
47114;DHT22;32867;51.556;6.832;2023-08-01T13:15:56;21.10;99.90
47114;DHT22;32867;51.556;6.832;2023-08-01T13:20:57;21.40;99.90
47114;DHT22;32867;51.556;6.832;2023-08-01T13:25:59;20.90;99.90
47114;DHT22;32867;51.556;6.832;2023-08-01T13:31:02;20.90;99.90
47114;DHT22;32867;51.556;6.832;2023-08-01T13:36:03;21.80;98.40
47114;DHT22;32867;51.556;6.832;2023-08-01T13:41:03;21.60;98.00
47114;DHT22;32867;51.556;6.832;2023-08-01T13:46:15;21.40;95.80
47114;DHT22;32867;51.556;6.832;2023-08-01T13:51:16;21.30;94.90
47114;DHT22;32867;51.556;6.832;2023-08-01T13:56:17;21.10;96.60
47114;DHT22;32867;51.556;6.832;2023-08-01T14:01:18;22.10;97.50
47114;DHT22;32867;51.556;6.832;2023-08-01T14:06:19;22.00;95.70
47114;DHT22;32867;51.556;6.832;2023-08-01T14:11:19;21.40;97.10
47114;DHT22;32867;51.556;6.832;2023-08-01T14:16:20;21.90;97.00
47114;DHT22;32867;51.556;6.832;2023-08-01T14:21:21;21.60;95.40
47114;DHT22;32867;51.556;6.832;2023-08-01T14:26:21;21.30;96.30
47114;DHT22;32867;51.556;6.832;2023-08-01T14:31:22;21.70;97.10
47114;DHT22;32867;51.556;6.832;2023-08-01T14:36:23;22.40;96.40
47114;DHT22;32867;51.556;6.832;2023-08-01T14:41:23;22.40;95.20
47114;DHT22;32867;51.556;6.832;2023-08-01T14:46:24;22.30;94.10
47114;DHT22;32867;51.556;6.832;2023-08-01T14:51:24;22.10;95.40
47114;DHT22;32867;51.556;6.832;2023-08-01T14:56:25;22.30;94.20
47114;DHT22;32867;51.556;6.832;2023-08-01T15:01:26;22.80;92.00
47114;DHT22;32867;51.556;6.832;2023-08-01T15:06:26;22.70;92.40
47114;DHT22;32867;51.556;6.832;2023-08-01T15:11:27;22.60;92.50
47114;DHT22;32867;51.556;6.832;2023-08-01T15:16:28;22.50;93.40
47114;DHT22;32867;51.556;6.832;2023-08-01T15:21:28;22.70;93.30
47114;DHT22;32867;51.556;6.832;2023-08-01T15:26:29;22.30;91.70
47114;DHT22;32867;51.556;6.832;2023-08-01T15:31:30;23.50;90.30
47114;DHT22;32867;51.556;6.832;2023-08-01T15:36:31;22.50;90.00
47114;DHT22;32867;51.556;6.832;2023-08-01T15:41:31;23.10;90.00
47114;DHT22;32867;51.556;6.832;2023-08-01T15:46:33;23.30;85.20
47114;DHT22;32867;51.556;6.832;2023-08-01T15:51:34;23.00;84.50
47114;DHT22;32867;51.556;6.832;2023-08-01T15:56:34;23.40;82.90
47114;DHT22;32867;51.556;6.832;2023-08-01T16:01:36;23.90;81.60
47114;DHT22;32867;51.556;6.832;2023-08-01T16:06:36;23.50;82.70
47114;DHT22;32867;51.556;6.832;2023-08-01T16:11:37;23.20;83.20
47114;DHT22;32867;51.556;6.832;2023-08-01T16:16:38;23.90;81.60
47114;DHT22;32867;51.556;6.832;2023-08-01T16:21:38;24.20;80.30
47114;DHT22;32867;51.556;6.832;2023-08-01T16:26:39;23.90;80.90
47114;DHT22;32867;51.556;6.832;2023-08-01T16:31:39;23.60;80.30
47114;DHT22;32867;51.556;6.832;2023-08-01T16:36:40;23.00;79.80
47114;DHT22;32867;51.556;6.832;2023-08-01T16:41:41;22.90;82.20
47114;DHT22;32867;51.556;6.832;2023-08-01T16:46:42;22.50;81.40
47114;DHT22;32867;51.556;6.832;2023-08-01T16:51:42;22.40;80.80
47114;DHT22;32867;51.556;6.832;2023-08-01T16:56:43;21.50;77.60
47114;DHT22;32867;51.556;6.832;2023-08-01T17:01:44;21.30;76.30
47114;DHT22;32867;51.556;6.832;2023-08-01T17:06:44;21.10;78.50
47114;DHT22;32867;51.556;6.832;2023-08-01T17:11:47;21.20;79.40
47114;DHT22;32867;51.556;6.832;2023-08-01T17:16:48;25.60;69.70
47114;DHT22;32867;51.556;6.832;2023-08-01T17:21:48;23.10;72.70
47114;DHT22;32867;51.556;6.832;2023-08-01T17:26:49;24.90;72.10
47114;DHT22;32867;51.556;6.832;2023-08-01T17:31:50;27.80;64.00
47114;DHT22;32867;51.556;6.832;2023-08-01T17:36:51;28.70;61.60
47114;DHT22;32867;51.556;6.832;2023-08-01T17:41:51;27.80;62.20
47114;DHT22;32867;51.556;6.832;2023-08-01T17:46:56;27.30;62.80
47114;DHT22;32867;51.556;6.832;2023-08-01T17:51:57;25.60;63.70
47114;DHT22;32867;51.556;6.832;2023-08-01T17:56:58;27.00;64.00
47114;DHT22;32867;51.556;6.832;2023-08-01T18:01:59;28.70;60.50
47114;DHT22;32867;51.556;6.832;2023-08-01T18:07:00;23.80;67.10
47114;DHT22;32867;51.556;6.832;2023-08-01T18:12:00;22.00;76.50
47114;DHT22;32867;51.556;6.832;2023-08-01T18:17:01;21.10;81.50
47114;DHT22;32867;51.556;6.832;2023-08-01T18:22:02;20.70;85.90
47114;DHT22;32867;51.556;6.832;2023-08-01T18:27:04;20.50;89.90
47114;DHT22;32867;51.556;6.832;2023-08-01T18:32:05;20.10;92.40
47114;DHT22;32867;51.556;6.832;2023-08-01T18:37:05;20.10;93.80
47114;DHT22;32867;51.556;6.832;2023-08-01T18:42:06;20.10;94.40
47114;DHT22;32867;51.556;6.832;2023-08-01T18:47:07;20.10;95.40
47114;DHT22;32867;51.556;6.832;2023-08-01T18:52:08;19.80;97.00
47114;DHT22;32867;51.556;6.832;2023-08-01T18:57:08;19.90;97.40
47114;DHT22;32867;51.556;6.832;2023-08-01T19:02:09;19.90;97.90
47114;DHT22;32867;51.556;6.832;2023-08-01T19:07:10;19.70;98.60
47114;DHT22;32867;51.556;6.832;2023-08-01T19:12:10;19.70;99.50
47114;DHT22;32867;51.556;6.832;2023-08-01T19:17:11;19.70;99.90
47114;DHT22;32867;51.556;6.832;2023-08-01T19:22:12;19.60;99.90
47114;DHT22;32867;51.556;6.832;2023-08-01T19:27:12;19.50;99.90
47114;DHT22;32867;51.556;6.832;2023-08-01T19:32:13;19.40;99.90
47114;DHT22;32867;51.556;6.832;2023-08-01T19:37:13;19.50;99.90
47114;DHT22;32867;51.556;6.832;2023-08-01T19:42:14;19.40;99.90
47114;DHT22;32867;51.556;6.832;2023-08-01T19:47:16;19.40;99.90
47114;DHT22;32867;51.556;6.832;2023-08-01T19:52:16;19.40;99.90
47114;DHT22;32867;51.556;6.832;2023-08-01T19:57:17;19.30;99.90
47114;DHT22;32867;51.556;6.832;2023-08-01T20:02:18;19.30;99.90
47114;DHT22;32867;51.556;6.832;2023-08-01T20:07:18;19.20;99.90
47114;DHT22;32867;51.556;6.832;2023-08-01T20:12:19;19.00;99.90
47114;DHT22;32867;51.556;6.832;2023-08-01T20:17:20;19.00;99.90
47114;DHT22;32867;51.556;6.832;2023-08-01T20:22:20;18.90;99.90
47114;DHT22;32867;51.556;6.832;2023-08-01T20:27:21;19.00;99.90
47114;DHT22;32867;51.556;6.832;2023-08-01T20:32:22;19.00;99.90
47114;DHT22;32867;51.556;6.832;2023-08-01T20:37:23;19.00;99.90
47114;DHT22;32867;51.556;6.832;2023-08-01T20:42:23;18.70;99.90
47114;DHT22;32867;51.556;6.832;2023-08-01T20:47:24;18.70;99.90
47114;DHT22;32867;51.556;6.832;2023-08-01T20:52:25;18.70;99.90
47114;DHT22;32867;51.556;6.832;2023-08-01T20:57:25;18.60;99.90
47114;DHT22;32867;51.556;6.832;2023-08-01T21:02:26;18.70;99.90
47114;DHT22;32867;51.556;6.832;2023-08-01T21:07:26;18.80;99.90
47114;DHT22;32867;51.556;6.832;2023-08-01T21:12:28;18.60;99.90
47114;DHT22;32867;51.556;6.832;2023-08-01T21:17:29;18.60;99.90
47114;DHT22;32867;51.556;6.832;2023-08-01T21:22:29;18.60;99.90
47114;DHT22;32867;51.556;6.832;2023-08-01T21:27:30;18.60;99.90
47114;DHT22;32867;51.556;6.832;2023-08-01T21:32:31;18.60;99.90
47114;DHT22;32867;51.556;6.832;2023-08-01T21:37:31;18.60;99.90
47114;DHT22;32867;51.556;6.832;2023-08-01T21:42:32;18.50;99.90
47114;DHT22;32867;51.556;6.832;2023-08-01T21:47:33;18.40;99.90
47114;DHT22;32867;51.556;6.832;2023-08-01T21:52:34;18.30;99.90
47114;DHT22;32867;51.556;6.832;2023-08-01T21:57:34;18.20;99.90
47114;DHT22;32867;51.556;6.832;2023-08-01T22:02:35;18.10;99.90
47114;DHT22;32867;51.556;6.832;2023-08-01T22:07:36;18.10;99.90
47114;DHT22;32867;51.556;6.832;2023-08-01T22:12:37;18.00;99.90
47114;DHT22;32867;51.556;6.832;2023-08-01T22:17:38;18.00;99.90
47114;DHT22;32867;51.556;6.832;2023-08-01T22:22:40;18.00;99.90
47114;DHT22;32867;51.556;6.832;2023-08-01T22:27:40;18.00;99.90
47114;DHT22;32867;51.556;6.832;2023-08-01T22:32:41;18.00;99.90
47114;DHT22;32867;51.556;6.832;2023-08-01T22:37:42;18.00;99.90
47114;DHT22;32867;51.556;6.832;2023-08-01T22:42:42;18.10;99.90
47114;DHT22;32867;51.556;6.832;2023-08-01T22:47:43;18.10;99.90
47114;DHT22;32867;51.556;6.832;2023-08-01T22:52:44;18.00;99.90
47114;DHT22;32867;51.556;6.832;2023-08-01T22:57:45;18.00;99.90
47114;DHT22;32867;51.556;6.832;2023-08-01T23:02:46;18.00;99.90
47114;DHT22;32867;51.556;6.832;2023-08-01T23:07:47;18.00;99.90
47114;DHT22;32867;51.556;6.832;2023-08-01T23:12:48;17.90;99.90
47114;DHT22;32867;51.556;6.832;2023-08-01T23:17:48;18.00;99.90
47114;DHT22;32867;51.556;6.832;2023-08-01T23:22:49;18.00;99.90
47114;DHT22;32867;51.556;6.832;2023-08-01T23:27:50;17.90;99.90
47114;DHT22;32867;51.556;6.832;2023-08-01T23:32:54;17.80;99.90
47114;DHT22;32867;51.556;6.832;2023-08-01T23:37:54;17.80;99.90
47114;DHT22;32867;51.556;6.832;2023-08-01T23:42:55;17.60;99.90
47114;DHT22;32867;51.556;6.832;2023-08-01T23:47:56;17.60;99.90
47114;DHT22;32867;51.556;6.832;2023-08-01T23:52:57;17.60;99.90
47114;DHT22;32867;51.556;6.832;2023-08-01T23:57:57;17.60;99.90
